Archival Weather

Chicago O'Hare International

Chicago, Illinois (KORD)

Report from: Monday, December 26, 2022 2:51 PM CST
Current time: Friday, June 21, 2024 4:09 AM CDT

Current weather – Weather history – Daily summaries
Weather forecast

Temperature-5.6°C (21.9°F)
Wind chill-8.2°C (17.2°F)
Dew point-11.7°C (10.9°F)
Winds 3 kts (1.5 m/s, 3.5 mph) North (350°)
Visibility10 mi. (16.1 km)
Clouds Few clouds 2,000 ft. (610 m)
Ceiling: Broken clouds 6,000 ft. (1,829 m)
Broken clouds 7,500 ft. (2,286 m)
Broken clouds 25,000 ft. (7,620 m)
Altimeter30.15 in.Hg (1021 mB)
Precip last 3 hoursTrace
Relative humidity62 %
Density altitude-2,806 ft. (-855 m)
Sea-level pressure102.2 kPa (1022 mB, 30.18 in.Hg)
Remarks System requires maintenance
Automated weather observing station with precipitation discriminator
Pressure rising more quickly
Flight conditions Visual Meteorological Conditions
Raw dataKORD 262051Z 35003KT 10SM FEW020 BKN060 BKN075 BKN250 M06/M12 A3015 RMK AO2 SLP220 60000 T10561117 53000 $
An error has occurred. This application may no longer respond until reloaded. Reload 🗙